Time;durP1;ratioP1;P1;durP2;ratioP2;P2;SDS_P1;SDS_P2;PMS_P1;PMS_P2;Temp;Humidity;BMP_temperature;BMP_pressure;BME280_temperature;BME280_humidity;BME280_pressure;Samples;Min_cycle;Max_cycle;Signal;HPM_P1;HPM_P2
2023/07/23 00:01:42;;;;;;;12.48;6.35;;;;;;;15.82;90.74;100795.75;5065522;28;20040;-68
2023/07/23 00:04:07;;;;;;;10.40;6.53;;;;;;;15.84;90.47;100797.47;5065999;28;20493;-67
2023/07/23 00:06:38;;;;;;;14.50;7.03;;;;;;;15.76;91.08;100782.63;5065629;28;20461;-66
2023/07/23 00:09:04;;;;;;;10.20;6.55;;;;;;;15.76;90.50;100787.22;5049050;28;20487;-69
2023/07/23 00:11:30;;;;;;;10.63;5.97;;;;;;;15.76;89.61;100779.88;5044649;28;20074;-67
2023/07/23 00:13:56;;;;;;;11.45;5.70;;;;;;;15.78;89.79;100785.22;5063472;28;20488;-66
2023/07/23 00:16:21;;;;;;;9.95;5.93;;;;;;;15.78;90.53;100768.75;5065084;28;20040;-69
2023/07/23 00:18:47;;;;;;;11.30;7.22;;;;;;;15.74;90.82;100773.66;5062373;28;20593;-65
2023/07/23 00:21:12;;;;;;;10.75;6.47;;;;;;;15.68;91.15;100776.13;5046704;28;20044;-66
2023/07/23 00:23:37;;;;;;;11.80;6.25;;;;;;;15.68;90.75;100760.53;5028624;28;20089;-67
2023/07/23 00:26:03;;;;;;;9.75;6.18;;;;;;;15.68;91.69;100767.91;5053919;28;20029;-65
2023/07/23 00:28:28;;;;;;;10.80;6.18;;;;;;;15.69;91.36;100761.41;5040787;28;20062;-69
2023/07/23 00:30:54;;;;;;;10.60;6.38;;;;;;;15.70;90.67;100746.66;5044010;28;20128;-64
2023/07/23 00:33:23;;;;;;;10.68;6.07;;;;;;;15.68;90.51;100751.44;5047272;28;20041;-65
2023/07/23 00:35:49;;;;;;;8.38;5.93;;;;;;;15.69;90.88;100747.69;5066620;28;20044;-66
2023/07/23 00:38:14;;;;;;;8.43;6.20;;;;;;;15.68;91.28;100740.47;5065855;28;20040;-66
2023/07/23 00:40:40;;;;;;;9.88;6.50;;;;;;;15.69;90.43;100733.97;5065072;28;20107;-65
2023/07/23 00:43:06;;;;;;;8.10;5.80;;;;;;;15.68;90.17;100727.63;5065968;28;20174;-66
2023/07/23 00:45:32;;;;;;;12.95;6.22;;;;;;;15.66;90.86;100721.41;5065569;28;20045;-66
2023/07/23 00:47:59;;;;;;;10.27;5.88;;;;;;;15.62;91.36;100724.56;5064542;28;20101;-66
2023/07/23 00:50:29;;;;;;;10.38;6.07;;;;;;;15.60;91.37;100719.22;5046304;28;20558;-66
2023/07/23 00:52:55;;;;;;;11.93;6.05;;;;;;;15.63;91.20;100715.34;5052975;28;20085;-65
2023/07/23 00:55:20;;;;;;;11.63;5.75;;;;;;;15.61;90.46;100714.59;5044196;28;20047;-66
2023/07/23 00:57:46;;;;;;;10.80;6.50;;;;;;;15.57;90.02;100706.69;5053004;28;20068;-65
2023/07/23 01:00:12;;;;;;;10.35;5.43;;;;;;;15.55;90.24;100705.94;5058228;28;20079;-64
2023/07/23 01:02:37;;;;;;;9.52;5.97;;;;;;;15.52;90.65;100692.53;5027284;28;20028;-65
2023/07/23 01:05:04;;;;;;;10.07;5.43;;;;;;;15.57;89.75;100700.31;5060978;28;20059;-66
2023/07/23 01:07:32;;;;;;;9.10;5.75;;;;;;;15.53;90.48;100687.94;5047175;28;20071;-66
2023/07/23 01:10:02;;;;;;;9.23;5.35;;;;;;;15.55;90.50;100688.63;5064258;28;20043;-67
2023/07/23 01:12:28;;;;;;;8.27;5.20;;;;;;;15.54;90.41;100679.56;5044134;28;20037;-66
2023/07/23 01:14:53;;;;;;;9.20;4.90;;;;;;;15.56;90.42;100676.66;5031405;28;20048;-67
2023/07/23 01:17:19;;;;;;;8.98;5.90;;;;;;;15.52;90.76;100673.34;5050426;28;20432;-64
2023/07/23 01:19:45;;;;;;;10.57;5.68;;;;;;;15.50;91.07;100669.88;5069097;28;20593;-65
2023/07/23 01:22:10;;;;;;;9.70;5.32;;;;;;;15.52;90.43;100665.09;5051254;28;20046;-67
2023/07/23 01:24:36;;;;;;;8.43;5.90;;;;;;;15.55;90.04;100663.97;5069368;28;20034;-68
2023/07/23 01:27:02;;;;;;;10.10;6.28;;;;;;;15.54;90.64;100665.84;5066608;28;20047;-66
2023/07/23 01:29:28;;;;;;;9.05;5.45;;;;;;;15.54;90.22;100657.63;5049493;28;20033;-65
2023/07/23 01:31:54;;;;;;;9.38;5.90;;;;;;;15.55;89.92;100656.59;5049614;28;20548;-66
2023/07/23 01:34:19;;;;;;;9.80;5.53;;;;;;;15.54;90.74;100643.03;5058583;28;20086;-66
2023/07/23 01:36:46;;;;;;;9.15;5.60;;;;;;;15.55;90.12;100647.50;5051536;28;20128;-65
2023/07/23 01:39:12;;;;;;;8.68;5.70;;;;;;;15.53;89.71;100642.19;5049414;28;20025;-66
2023/07/23 01:41:38;;;;;;;7.82;6.03;;;;;;;15.49;90.60;100635.25;5042793;28;20169;-66
2023/07/23 01:44:03;;;;;;;10.82;5.82;;;;;;;15.44;90.57;100626.63;5049553;28;20143;-69
2023/07/23 01:46:29;;;;;;;11.60;5.93;;;;;;;15.46;90.70;100626.47;5068957;28;20039;-66
2023/07/23 01:48:54;;;;;;;7.97;5.32;;;;;;;15.45;90.46;100628.34;5068368;28;20169;-65
2023/07/23 01:51:20;;;;;;;11.88;5.93;;;;;;;15.42;90.56;100623.13;5067149;28;20040;-65
2023/07/23 01:53:45;;;;;;;10.00;5.10;;;;;;;15.41;90.54;100615.06;5068168;28;20132;-67
2023/07/23 01:56:10;;;;;;;11.05;6.10;;;;;;;15.37;90.78;100608.16;5067889;28;20467;-66
2023/07/23 01:58:36;;;;;;;9.20;5.80;;;;;;;15.34;91.66;100611.19;5047129;28;20040;-66
2023/07/23 02:01:03;;;;;;;10.48;5.88;;;;;;;15.32;90.69;100608.59;5038076;28;20036;-65
2023/07/23 02:03:28;;;;;;;10.15;6.20;;;;;;;15.33;91.24;100599.34;5038493;28;20033;-66
2023/07/23 02:06:00;;;;;;;9.18;6.18;;;;;;;15.30;90.89;100602.41;5067835;28;20048;-65
2023/07/23 02:08:26;;;;;;;10.60;6.47;;;;;;;15.31;90.71;100594.03;5068226;28;20040;-67
2023/07/23 02:10:58;;;;;;;10.90;6.07;;;;;;;15.31;91.47;100594.03;5067121;28;20135;-65
2023/07/23 02:13:23;;;;;;;12.80;7.15;;;;;;;15.30;91.76;100584.09;5068278;28;20097;-65
2023/07/23 02:15:49;;;;;;;8.70;6.45;;;;;;;15.29;90.71;100586.97;5067910;28;20371;-65
2023/07/23 02:18:14;;;;;;;12.05;6.57;;;;;;;15.29;91.18;100576.88;5049761;28;20032;-65
2023/07/23 02:20:42;;;;;;;9.93;6.85;;;;;;;15.30;91.49;100580.47;5033817;28;20082;-66
2023/07/23 02:23:07;;;;;;;11.27;6.68;;;;;;;15.33;91.06;100580.16;5068299;28;20056;-65
2023/07/23 02:25:37;;;;;;;10.38;6.22;;;;;;;15.32;91.37;100576.56;5067360;28;20545;-68
2023/07/23 02:28:04;;;;;;;10.48;6.03;;;;;;;15.30;90.94;100566.78;5048834;28;20049;-66
2023/07/23 02:30:29;;;;;;;11.05;6.97;;;;;;;15.32;91.07;100576.56;5063847;28;20397;-66
2023/07/23 02:32:54;;;;;;;10.32;6.13;;;;;;;15.32;90.95;100562.84;5014250;28;20036;-66
2023/07/23 02:35:20;;;;;;;14.00;6.28;;;;;;;15.29;90.64;100560.44;5066691;28;20508;-65
2023/07/23 02:37:47;;;;;;;12.80;6.53;;;;;;;15.30;90.53;100556.69;5067555;28;20028;-68
2023/07/23 02:40:12;;;;;;;9.80;5.47;;;;;;;15.31;90.19;100555.66;5068189;28;20054;-66
2023/07/23 02:42:38;;;;;;;8.77;5.70;;;;;;;15.33;89.84;100552.75;5046141;28;20119;-67
2023/07/23 02:45:04;;;;;;;7.78;5.25;;;;;;;15.34;89.72;100545.41;5053542;28;20390;-65
2023/07/23 02:47:29;;;;;;;10.55;5.38;;;;;;;15.34;88.84;100546.28;5066647;28;20036;-66
2023/07/23 02:49:55;;;;;;;8.65;5.80;;;;;;;15.34;88.40;100546.28;5048927;28;20033;-66
2023/07/23 02:52:20;;;;;;;9.65;5.57;;;;;;;15.34;89.85;100553.63;5067470;28;20037;-66
2023/07/23 02:54:46;;;;;;;7.55;5.13;;;;;;;15.32;90.34;100540.94;5066182;28;20147;-65
2023/07/23 02:57:12;;;;;;;9.88;5.35;;;;;;;15.33;90.79;100536.31;5064059;28;20143;-67
2023/07/23 02:59:37;;;;;;;9.63;5.30;;;;;;;15.32;89.71;100532.72;5048019;28;20135;-66
2023/07/23 03:02:03;;;;;;;8.75;5.40;;;;;;;15.32;91.30;100534.59;5046860;28;20116;-68
2023/07/23 03:04:29;;;;;;;8.80;5.22;;;;;;;15.30;90.71;100528.41;5036860;28;20025;-66
2023/07/23 03:06:54;;;;;;;8.48;4.57;;;;;;;15.29;87.05;100530.28;5062560;28;20449;-65
2023/07/23 03:09:20;;;;;;;8.93;5.18;;;;;;;15.32;89.64;100529.09;5049169;28;20047;-66
2023/07/23 03:11:45;;;;;;;10.40;5.20;;;;;;;15.30;89.78;100522.94;5066034;28;20040;-66
2023/07/23 03:14:10;;;;;;;11.15;4.82;;;;;;;15.31;88.63;100535.59;5067137;28;20028;-67
2023/07/23 03:16:37;;;;;;;10.82;5.13;;;;;;;15.28;87.78;100516.72;5066829;28;20078;-66
2023/07/23 03:19:02;;;;;;;10.05;4.97;;;;;;;15.30;88.15;100520.19;5066880;28;20048;-68
2023/07/23 03:21:27;;;;;;;9.90;5.25;;;;;;;15.33;85.86;100525.34;5066931;28;20037;-67
2023/07/23 03:23:53;;;;;;;9.10;4.53;;;;;;;15.36;85.65;100521.47;5049504;28;20255;-67
2023/07/23 03:26:18;;;;;;;9.00;4.40;;;;;;;15.40;84.54;100520.16;5045417;28;20136;-66
2023/07/23 03:28:43;;;;;;;7.18;4.32;;;;;;;15.38;85.18;100524.91;5044130;28;20040;-66
2023/07/23 03:31:09;;;;;;;7.43;3.90;;;;;;;15.40;84.47;100525.63;5047433;28;20024;-66
2023/07/23 03:33:34;;;;;;;7.85;3.85;;;;;;;15.40;84.52;100525.63;5048770;28;20106;-69
2023/07/23 03:36:00;;;;;;;11.13;4.32;;;;;;;15.39;84.54;100518.41;5066616;28;20032;-67
2023/07/23 03:38:26;;;;;;;9.45;4.15;;;;;;;15.39;85.66;100521.13;5031452;28;20094;-67
2023/07/23 03:40:51;;;;;;;6.25;3.78;;;;;;;15.37;85.72;100515.81;5065348;28;20119;-67
2023/07/23 03:43:16;;;;;;;7.82;3.72;;;;;;;15.38;84.37;100516.69;5067015;28;20101;-66
2023/07/23 03:45:42;;;;;;;8.27;4.60;;;;;;;15.38;84.49;100519.41;5066320;28;20116;-65
2023/07/23 03:48:07;;;;;;;7.88;3.97;;;;;;;15.40;83.19;100514.66;5065928;28;20435;-68
2023/07/23 03:50:33;;;;;;;6.97;4.35;;;;;;;15.41;83.20;100517.25;5066580;28;20083;-67
2023/07/23 03:52:58;;;;;;;9.13;4.55;;;;;;;15.41;83.37;100514.50;5050489;28;20054;-66
2023/07/23 03:55:23;;;;;;;10.38;3.90;;;;;;;15.41;83.19;100520.00;5044139;28;20496;-66
2023/07/23 03:57:49;;;;;;;5.55;3.90;;;;;;;15.43;82.59;100517.09;5053434;28;20376;-66
2023/07/23 04:00:14;;;;;;;8.07;4.43;;;;;;;15.44;82.60;100521.56;5067146;28;20403;-66
2023/07/23 04:02:41;;;;;;;5.55;3.70;;;;;;;15.43;82.43;100519.81;5066692;28;20040;-66
2023/07/23 04:05:07;;;;;;;12.95;4.03;;;;;;;15.41;82.58;100522.72;5046908;28;20025;-65
2023/07/23 04:07:32;;;;;;;6.50;4.18;;;;;;;15.41;83.57;100522.72;5047332;28;20068;-66
2023/07/23 04:09:58;;;;;;;6.78;3.83;;;;;;;15.41;82.32;100519.13;5046831;28;20079;-66
2023/07/23 04:12:23;;;;;;;9.68;3.90;;;;;;;15.44;81.76;100521.56;5031777;28;20531;-67
2023/07/23 04:14:51;;;;;;;7.45;3.25;;;;;;;15.46;80.64;100519.53;5065993;28;20025;-67
2023/07/23 04:17:17;;;;;;;9.18;4.00;;;;;;;15.46;82.17;100522.28;5066529;28;20024;-67
2023/07/23 04:19:42;;;;;;;6.18;3.70;;;;;;;15.44;82.22;100514.22;5044234;28;20029;-68
2023/07/23 04:22:07;;;;;;;10.45;3.88;;;;;;;15.45;81.89;100518.69;5045901;28;20036;-68
2023/07/23 04:24:33;;;;;;;7.57;3.83;;;;;;;15.49;81.08;100524.72;5059501;28;20405;-66
2023/07/23 04:26:58;;;;;;;9.40;4.43;;;;;;;15.49;82.97;100522.84;5028946;28;20029;-66
2023/07/23 04:29:24;;;;;;;9.65;4.25;;;;;;;15.51;81.05;100525.44;5065673;28;20043;-66
2023/07/23 04:31:49;;;;;;;9.70;4.28;;;;;;;15.52;81.57;100522.53;5048504;28;20048;-66
2023/07/23 04:34:15;;;;;;;6.53;3.35;;;;;;;15.53;80.85;100515.19;5064964;28;20036;-67
2023/07/23 04:36:40;;;;;;;7.50;3.55;;;;;;;15.59;79.29;100522.81;5046655;28;20079;-68
2023/07/23 04:39:05;;;;;;;9.75;4.65;;;;;;;15.61;81.85;100518.00;5028382;28;20154;-67
2023/07/23 04:41:31;;;;;;;4.95;3.75;;;;;;;15.60;81.74;100524.53;5066613;28;20492;-66
2023/07/23 04:43:56;;;;;;;6.88;3.47;;;;;;;15.62;81.79;100518.88;5066255;28;20412;-66
2023/07/23 04:46:22;;;;;;;6.75;3.90;;;;;;;15.66;80.53;100523.06;5050727;28;20052;-67
2023/07/23 04:48:47;;;;;;;10.43;4.07;;;;;;;15.68;81.30;100521.91;5047405;28;20040;-66
2023/07/23 04:51:12;;;;;;;5.93;3.53;;;;;;;15.68;81.47;100516.44;5055362;28;20049;-67
2023/07/23 04:53:38;;;;;;;7.57;3.70;;;;;;;15.71;79.72;100518.84;5064235;28;20048;-67
2023/07/23 04:56:05;;;;;;;9.68;3.80;;;;;;;15.74;79.76;100515.81;5070624;28;20135;-66
2023/07/23 04:58:31;;;;;;;5.22;3.70;;;;;;;15.77;78.75;100521.00;5070326;28;20078;-66
2023/07/23 05:00:58;;;;;;;7.63;3.80;;;;;;;15.79;80.14;100501.66;5064134;28;20039;-68
2023/07/23 05:03:24;;;;;;;6.97;3.33;;;;;;;15.79;80.16;100518.97;5054871;28;20048;-66
2023/07/23 05:05:50;;;;;;;6.00;4.00;;;;;;;15.81;81.58;100513.34;5068233;28;20033;-66
2023/07/23 05:08:19;;;;;;;7.80;3.88;;;;;;;15.81;80.62;100513.34;5068891;28;20134;-66
2023/07/23 05:10:45;;;;;;;6.72;3.35;;;;;;;15.83;80.26;100511.31;5066091;28;20506;-66
2023/07/23 05:13:11;;;;;;;10.45;3.88;;;;;;;15.84;81.13;100514.91;5069160;28;20043;-65
2023/07/23 05:15:37;;;;;;;8.43;3.80;;;;;;;15.86;79.30;100519.22;5069604;28;20540;-65
2023/07/23 05:18:02;;;;;;;10.27;4.20;;;;;;;15.89;79.93;100518.03;5056096;28;20032;-66
2023/07/23 05:20:27;;;;;;;8.13;3.78;;;;;;;15.89;82.04;100520.78;5067086;28;20470;-65
2023/07/23 05:22:55;;;;;;;5.78;4.00;;;;;;;15.85;82.15;100524.84;5068674;28;20055;-67
2023/07/23 05:25:20;;;;;;;8.13;3.83;;;;;;;15.84;82.41;100526.75;5068763;28;20479;-66
2023/07/23 05:27:45;;;;;;;6.85;3.83;;;;;;;15.86;82.05;100519.22;5066193;28;20090;-66
2023/07/23 05:30:11;;;;;;;6.45;3.55;;;;;;;15.86;80.95;100512.88;5061596;28;20051;-66
2023/07/23 05:32:36;;;;;;;4.35;3.70;;;;;;;15.86;82.50;100516.50;5047357;28;20039;-65
2023/07/23 05:35:02;;;;;;;6.55;3.80;;;;;;;15.85;81.92;100514.75;5064403;28;20040;-66
2023/07/23 05:37:28;;;;;;;9.52;3.72;;;;;;;15.88;81.19;100514.44;5065772;28;20036;-66
2023/07/23 05:39:53;;;;;;;10.82;3.75;;;;;;;15.89;81.34;100512.56;5050106;28;20036;-67
2023/07/23 05:42:20;;;;;;;7.07;3.72;;;;;;;15.90;82.70;100511.53;5063990;28;20480;-67
2023/07/23 05:44:45;;;;;;;6.22;3.50;;;;;;;15.90;81.04;100501.44;5063934;28;20036;-66
2023/07/23 05:47:10;;;;;;;7.13;3.30;;;;;;;15.91;81.30;100505.06;5050872;28;20070;-67
2023/07/23 05:49:36;;;;;;;8.30;3.55;;;;;;;15.89;81.80;100509.81;5064531;28;20039;-66
2023/07/23 05:52:02;;;;;;;6.47;3.22;;;;;;;15.89;80.38;100513.41;5059976;28;20028;-66
2023/07/23 05:54:28;;;;;;;5.75;3.72;;;;;;;15.88;79.47;100514.44;5060249;28;20491;-66
2023/07/23 05:56:53;;;;;;;5.35;4.03;;;;;;;15.92;81.66;100509.53;5057463;28;20178;-66
2023/07/23 05:59:18;;;;;;;8.77;3.55;;;;;;;15.91;80.63;100507.81;5051374;28;20028;-65
2023/07/23 06:01:44;;;;;;;5.63;3.40;;;;;;;15.91;81.73;100500.44;5066286;28;20113;-67
2023/07/23 06:04:10;;;;;;;7.43;3.55;;;;;;;15.94;81.08;100511.06;5053188;28;20357;-67
2023/07/23 06:06:36;;;;;;;8.10;3.70;;;;;;;15.94;80.65;100502.84;5066208;28;20508;-67
2023/07/23 06:09:03;;;;;;;5.03;3.35;;;;;;;15.97;80.37;100504.44;5049505;28;20028;-67
2023/07/23 06:11:29;;;;;;;6.00;3.30;;;;;;;16.01;81.36;100508.59;5051120;28;20468;-67
2023/07/23 06:13:54;;;;;;;10.30;3.45;;;;;;;16.02;79.23;100519.41;5056794;28;20048;-66
2023/07/23 06:16:20;;;;;;;8.02;3.88;;;;;;;16.05;81.75;100521.00;5060486;28;20472;-67
2023/07/23 06:18:45;;;;;;;7.13;3.65;;;;;;;16.03;82.11;100518.38;5052479;28;20090;-67
2023/07/23 06:21:11;;;;;;;6.20;3.83;;;;;;;16.02;80.81;100522.16;5053707;28;20047;-67
2023/07/23 06:23:36;;;;;;;10.23;3.78;;;;;;;15.97;81.04;100516.25;5055663;28;20024;-66
2023/07/23 06:26:01;;;;;;;8.35;3.70;;;;;;;15.87;84.44;100517.34;5065328;28;20032;-67
2023/07/23 06:28:27;;;;;;;9.27;3.50;;;;;;;15.80;83.33;100528.06;5068044;28;20082;-67
2023/07/23 06:30:53;;;;;;;5.20;3.35;;;;;;;15.78;85.81;100521.88;5065847;28;20035;-66
2023/07/23 06:33:19;;;;;;;5.97;3.45;;;;;;;15.78;84.53;100524.63;5051151;28;20044;-65
2023/07/23 06:35:45;;;;;;;6.75;3.20;;;;;;;15.81;84.92;100530.66;5058594;28;20426;-67
2023/07/23 06:38:11;;;;;;;6.47;3.55;;;;;;;15.84;85.83;100524.00;5064959;28;20468;-65
2023/07/23 06:40:37;;;;;;;6.97;4.75;;;;;;;15.87;85.34;100529.19;5058474;28;20036;-67
2023/07/23 06:43:02;;;;;;;5.38;3.47;;;;;;;15.91;83.99;100537.97;5068352;28;20470;-65
2023/07/23 06:45:28;;;;;;;5.88;3.78;;;;;;;15.92;82.75;100536.97;5065542;28;20036;-67
2023/07/23 06:47:54;;;;;;;4.93;3.60;;;;;;;15.94;83.92;100540.41;5066439;28;20495;-66
2023/07/23 06:50:20;;;;;;;6.82;3.78;;;;;;;15.95;84.75;100543.00;5066402;28;20334;-66
2023/07/23 06:52:46;;;;;;;5.20;3.42;;;;;;;15.94;84.29;100549.50;5064333;28;20064;-68
2023/07/23 06:55:11;;;;;;;9.43;3.85;;;;;;;15.91;85.48;100546.22;5064059;28;20082;-67
2023/07/23 06:57:38;;;;;;;7.65;4.22;;;;;;;15.90;86.44;100550.84;5041758;28;20029;-67
2023/07/23 07:00:06;;;;;;;11.43;3.60;;;;;;;15.93;85.80;100549.66;5067809;28;20028;-67
2023/07/23 07:02:31;;;;;;;6.60;4.18;;;;;;;15.91;87.85;100551.69;5049899;28;20040;-66
2023/07/23 07:04:57;;;;;;;7.25;4.00;;;;;;;15.93;88.84;100550.50;5064027;28;20495;-67
2023/07/23 07:07:22;;;;;;;6.70;4.22;;;;;;;15.92;87.66;100556.16;5066625;28;20050;-68
2023/07/23 07:09:48;;;;;;;6.55;3.65;;;;;;;15.86;89.41;100549.41;5066523;28;20045;-66
2023/07/23 07:12:13;;;;;;;11.40;4.80;;;;;;;15.79;89.30;100557.38;5064195;28;20044;-66
2023/07/23 07:14:38;;;;;;;8.88;4.10;;;;;;;15.75;90.60;100560.56;5065917;28;20024;-67
2023/07/23 07:17:04;;;;;;;6.88;4.15;;;;;;;15.75;91.18;100547.72;5067248;28;20044;-68
2023/07/23 07:19:29;;;;;;;10.88;4.40;;;;;;;15.75;91.58;100550.44;5065355;28;20070;-66
2023/07/23 07:21:55;;;;;;;6.95;3.90;;;;;;;15.77;92.72;100547.56;5061910;28;20108;-65
2023/07/23 07:24:20;;;;;;;8.05;4.07;;;;;;;15.79;91.46;100549.13;5051446;28;20442;-65
2023/07/23 07:26:45;;;;;;;12.73;5.00;;;;;;;15.76;92.26;100549.47;5056818;28;20044;-66
2023/07/23 07:29:11;;;;;;;7.90;4.07;;;;;;;15.76;92.10;100549.47;5066350;28;20040;-66
2023/07/23 07:31:36;;;;;;;7.85;4.15;;;;;;;15.76;93.00;100549.47;5064683;28;20111;-67
2023/07/23 07:34:02;;;;;;;6.65;4.40;;;;;;;15.74;92.63;100548.72;5059066;28;20055;-66
2023/07/23 07:36:28;;;;;;;9.32;4.47;;;;;;;15.71;93.83;100548.16;5047644;28;20093;-66
2023/07/23 07:38:53;;;;;;;7.53;4.32;;;;;;;15.75;94.35;100555.06;5065210;28;20037;-67
2023/07/23 07:41:18;;;;;;;7.45;5.40;;;;;;;15.75;92.57;100550.44;5059803;28;20460;-68
2023/07/23 07:43:44;;;;;;;10.25;4.75;;;;;;;15.78;91.83;100552.03;5066343;28;20104;-66
2023/07/23 07:46:09;;;;;;;10.98;4.80;;;;;;;15.79;92.03;100545.53;5057494;28;20047;-66
2023/07/23 07:48:37;;;;;;;7.70;4.18;;;;;;;15.85;91.51;100547.66;5065761;28;20037;-67
2023/07/23 07:51:05;;;;;;;9.50;4.28;;;;;;;15.91;92.40;100549.81;5062220;28;20090;-67
2023/07/23 07:53:31;;;;;;;7.30;4.35;;;;;;;16.02;92.37;100541.34;5056975;28;20035;-67
2023/07/23 07:55:58;;;;;;;7.47;4.72;;;;;;;16.15;92.21;100542.88;5066591;28;20360;-66
2023/07/23 07:58:24;;;;;;;10.70;4.75;;;;;;;16.21;91.31;100540.38;5059870;28;20048;-66
2023/07/23 08:00:54;;;;;;;7.80;4.30;;;;;;;16.24;91.64;100544.69;5045943;28;20016;-68
2023/07/23 08:03:22;;;;;;;11.45;4.78;;;;;;;16.29;92.51;100540.47;5063899;28;20028;-69
2023/07/23 08:05:48;;;;;;;7.13;4.15;;;;;;;16.36;90.75;100550.81;5040984;28;20484;-67
2023/07/23 08:08:15;;;;;;;8.77;4.78;;;;;;;16.41;91.67;100542.97;5064940;28;20046;-66
2023/07/23 08:10:41;;;;;;;10.52;4.97;;;;;;;16.38;90.80;100551.53;5066584;28;20119;-67
2023/07/23 08:13:09;;;;;;;7.32;4.95;;;;;;;16.38;91.25;100543.28;5061921;28;20028;-67
2023/07/23 08:15:34;;;;;;;9.18;5.18;;;;;;;16.40;91.29;100539.34;5062001;28;20045;-68
2023/07/23 08:18:00;;;;;;;8.98;4.80;;;;;;;16.40;92.32;100539.34;5065890;28;20036;-66
2023/07/23 08:20:27;;;;;;;8.90;4.88;;;;;;;16.39;91.70;100548.63;5066504;28;20094;-68
2023/07/23 08:22:54;;;;;;;7.13;4.45;;;;;;;16.42;92.31;100548.31;5066232;28;20040;-66
2023/07/23 08:25:19;;;;;;;9.68;5.30;;;;;;;16.44;93.60;100535.28;5064125;28;20029;-68
2023/07/23 08:27:50;;;;;;;8.45;4.00;;;;;;;16.47;92.87;100545.09;5058913;28;20085;-66
2023/07/23 08:30:16;;;;;;;6.90;4.30;;;;;;;16.43;92.38;100541.81;5066680;28;20093;-68
2023/07/23 08:32:43;;;;;;;7.15;4.30;;;;;;;16.49;91.26;100538.41;5066858;28;20087;-68
2023/07/23 08:35:11;;;;;;;8.63;3.53;;;;;;;16.52;91.52;100540.88;5065125;28;20490;-67
2023/07/23 08:37:36;;;;;;;5.47;4.22;;;;;;;16.53;92.76;100545.34;5045368;28;20040;-67
2023/07/23 08:40:02;;;;;;;6.00;3.85;;;;;;;16.49;92.14;100530.19;5046833;28;20028;-66
2023/07/23 08:42:51;;;;;;;6.03;3.70;;;;;;;16.48;92.85;100539.44;5059945;28;20478;-68
2023/07/23 08:46:02;;;;;;;6.72;4.28;;;;;;;16.48;92.63;100542.19;5052048;28;20495;-68
2023/07/23 08:48:51;;;;;;;5.10;2.95;;;;;;;16.43;92.70;100535.44;5058170;28;20468;-68
2023/07/23 08:51:16;;;;;;;6.53;3.63;;;;;;;16.43;93.04;100541.81;5055140;28;20063;-67
2023/07/23 08:53:42;;;;;;;5.30;3.35;;;;;;;16.47;93.26;100539.63;5066187;28;20472;-67
2023/07/23 08:56:07;;;;;;;4.78;3.53;;;;;;;16.49;93.04;100534.81;5046316;28;20468;-67
2023/07/23 08:58:33;;;;;;;5.78;2.88;;;;;;;16.53;94.14;100534.34;5064431;28;20032;-68
2023/07/23 09:00:59;;;;;;;3.58;2.70;;;;;;;16.65;93.90;100539.63;5057481;28;20021;-68
2023/07/23 09:03:26;;;;;;;6.15;2.95;;;;;;;16.75;93.43;100535.78;5064524;28;20127;-67
2023/07/23 09:05:51;;;;;;;3.72;2.70;;;;;;;16.79;92.56;100541.84;5057816;28;20029;-68
2023/07/23 09:08:19;;;;;;;3.88;2.80;;;;;;;16.79;92.79;100548.19;5055365;28;20055;-68
2023/07/23 09:10:45;;;;;;;5.82;2.80;;;;;;;16.78;92.91;100540.94;5062674;28;20539;-67
2023/07/23 09:13:13;;;;;;;3.47;2.45;;;;;;;16.82;94.64;100536.84;5062213;28;20124;-68
2023/07/23 09:15:39;;;;;;;3.25;2.30;;;;;;;16.88;94.56;100548.22;5065986;28;20094;-67
2023/07/23 09:18:05;;;;;;;5.00;2.78;;;;;;;16.94;94.13;100542.97;5060554;28;20467;-67
2023/07/23 09:20:30;;;;;;;4.80;2.40;;;;;;;16.92;93.84;100541.41;5049907;28;20758;-68
2023/07/23 09:23:04;;;;;;;4.50;2.42;;;;;;;17.00;93.44;100541.47;5064287;28;20464;-68
2023/07/23 09:25:30;;;;;;;4.25;2.40;;;;;;;17.07;93.89;100548.91;5059741;28;20545;-68
2023/07/23 09:27:56;;;;;;;4.45;2.58;;;;;;;17.06;92.55;100549.91;5059017;28;20086;-68
2023/07/23 09:30:22;;;;;;;4.57;2.17;;;;;;;17.04;93.69;100549.22;5038229;28;20028;-68
2023/07/23 09:32:58;;;;;;;3.47;2.28;;;;;;;17.01;93.96;100555.03;5064794;28;20036;-69
2023/07/23 09:35:24;;;;;;;3.88;2.30;;;;;;;16.99;94.02;100554.34;5059281;28;20048;-68
2023/07/23 09:37:56;;;;;;;3.28;2.17;;;;;;;16.99;95.34;100556.25;5067005;28;20036;-68
2023/07/23 09:40:32;;;;;;;4.80;2.63;;;;;;;16.87;96.12;100549.25;5061177;28;20036;-67
2023/07/23 09:42:57;;;;;;;5.18;2.83;;;;;;;16.85;96.38;100556.81;5064394;28;20152;-68
2023/07/23 09:45:22;;;;;;;3.25;2.17;;;;;;;16.76;96.08;100553.13;5065078;28;20103;-67
2023/07/23 09:47:49;;;;;;;3.88;2.55;;;;;;;16.78;97.22;100551.06;5050577;28;20043;-68
2023/07/23 09:50:16;;;;;;;4.72;2.60;;;;;;;16.70;97.71;100557.34;5062207;28;20036;-67
2023/07/23 09:52:41;;;;;;;3.78;2.53;;;;;;;16.76;97.35;100555.88;5054248;28;20389;-67
2023/07/23 09:55:07;;;;;;;4.75;2.70;;;;;;;16.77;97.17;100554.84;5062465;28;20045;-67
2023/07/23 09:57:34;;;;;;;3.35;2.42;;;;;;;16.74;96.20;100555.16;5064361;28;20039;-68
2023/07/23 10:00:02;;;;;;;4.80;2.95;;;;;;;16.77;97.69;100558.44;5060876;28;20112;-68
2023/07/23 10:02:39;;;;;;;4.78;2.65;;;;;;;16.75;97.00;100554.16;5066784;28;20388;-67
2023/07/23 10:05:06;;;;;;;3.92;2.83;;;;;;;16.71;97.57;100564.56;5067988;28;20048;-68
2023/07/23 10:07:32;;;;;;;3.35;2.55;;;;;;;16.63;97.91;100558.13;5065769;28;20048;-69
2023/07/23 10:10:00;;;;;;;5.53;2.90;;;;;;;16.54;97.52;100565.41;5055583;28;20033;-68
2023/07/23 10:12:25;;;;;;;3.25;2.35;;;;;;;16.49;98.21;100578.75;5055778;28;20455;-67
2023/07/23 10:14:51;;;;;;;4.57;2.30;;;;;;;16.48;98.44;100571.53;5065261;28;20111;-68
2023/07/23 10:17:18;;;;;;;2.85;2.00;;;;;;;16.50;99.16;100577.72;5061769;28;20090;-69
2023/07/23 10:19:45;;;;;;;2.88;1.95;;;;;;;16.45;99.61;100575.44;5059819;28;20055;-67
2023/07/23 10:22:11;;;;;;;3.03;2.28;;;;;;;16.40;99.38;100579.69;5065604;28;20048;-67
2023/07/23 10:24:38;;;;;;;3.30;2.28;;;;;;;16.42;100.00;100573.03;5030178;28;20116;-67
2023/07/23 10:27:10;;;;;;;3.20;2.30;;;;;;;16.40;99.83;100572.31;5060076;28;20567;-68
2023/07/23 10:29:36;;;;;;;3.10;2.55;;;;;;;16.45;100.00;100580.09;5054577;28;20132;-68
2023/07/23 10:32:24;;;;;;;3.85;2.10;;;;;;;16.46;99.84;100579.06;5046209;28;20119;-67
2023/07/23 10:34:50;;;;;;;3.75;2.55;;;;;;;16.43;100.00;100576.63;5064117;28;20074;-68
2023/07/23 10:37:18;;;;;;;3.90;2.33;;;;;;;16.42;100.00;100581.28;5038324;28;20044;-68
2023/07/23 10:39:48;;;;;;;3.38;2.50;;;;;;;16.42;100.00;100572.19;5051020;28;20032;-68
2023/07/23 10:42:35;;;;;;;3.97;2.67;;;;;;;16.39;100.00;100573.34;5055915;28;20597;-70
2023/07/23 10:45:22;;;;;;;3.92;2.72;;;;;;;16.45;100.00;100585.56;5066336;28;20040;-67
2023/07/23 10:47:52;;;;;;;4.95;3.17;;;;;;;16.45;100.00;100569.94;5061525;28;20036;-67
2023/07/23 10:50:20;;;;;;;4.95;2.95;;;;;;;16.53;100.00;100574.69;5055287;28;20425;-70
2023/07/23 10:52:50;;;;;;;3.97;2.58;;;;;;;16.59;100.00;100574.03;5063947;28;20020;-69
2023/07/23 10:55:34;;;;;;;5.35;3.28;;;;;;;16.69;100.00;100573.97;5064032;28;20068;-70
2023/07/23 10:58:01;;;;;;;6.22;2.88;;;;;;;16.77;100.00;100579.56;5062872;28;20035;-66
2023/07/23 11:00:27;;;;;;;5.47;2.70;;;;;;;16.77;100.00;100572.19;5048575;28;20043;-67
2023/07/23 11:02:55;;;;;;;4.38;3.00;;;;;;;16.78;99.86;100562.06;5067518;28;20479;-68
2023/07/23 11:05:24;;;;;;;4.60;3.35;;;;;;;16.85;99.54;100576.91;5064266;28;20411;-69
2023/07/23 11:08:23;;;;;;;6.03;3.42;;;;;;;17.00;100.00;100575.31;5066429;28;20091;-66
2023/07/23 11:10:56;;;;;;;4.00;2.72;;;;;;;17.12;98.48;100577.81;5062639;28;20491;-67
2023/07/23 11:13:24;;;;;;;4.30;2.70;;;;;;;17.26;99.97;100572.59;5065031;28;20119;-67
2023/07/23 11:15:50;;;;;;;5.22;3.30;;;;;;;17.42;98.81;100576.47;5052227;28;20192;-67
2023/07/23 11:18:15;;;;;;;3.95;2.90;;;;;;;17.59;98.45;100559.06;5064185;28;20111;-67
2023/07/23 11:20:45;;;;;;;5.00;3.10;;;;;;;17.85;97.08;100557.13;5066816;28;20031;-67